createdAt,value
2019-03-12T00:00:19.988Z,88.42
2019-03-12T00:01:19.997Z,88.31
2019-03-12T00:02:19.969Z,88.31
2019-03-12T00:03:19.962Z,87.89
2019-03-12T00:04:19.962Z,87.89
2019-03-12T00:05:20.007Z,89.04
2019-03-12T00:06:19.936Z,89.45
2019-03-12T00:07:19.972Z,88.93
2019-03-12T00:08:19.993Z,89.14
2019-03-12T00:09:19.904Z,89.56
2019-03-12T00:10:19.880Z,88.62
2019-03-12T00:11:19.879Z,88.62
2019-03-12T00:12:19.873Z,87.68
2019-03-12T00:13:19.856Z,87.79
2019-03-12T00:14:19.974Z,88.73
2019-03-12T00:15:19.831Z,87.68
2019-03-12T00:16:19.821Z,87.68
2019-03-12T00:17:19.926Z,87.68
2019-03-12T00:18:19.800Z,88.73
2019-03-12T00:19:19.803Z,88.31
2019-03-12T00:20:19.776Z,87.99
2019-03-12T00:21:19.761Z,87.68
2019-03-12T00:22:19.760Z,87.79
2019-03-12T00:23:19.756Z,87.68
2019-03-12T00:24:19.738Z,87.68
2019-03-12T00:25:19.718Z,88.06
2019-03-12T00:26:19.709Z,87.99
2019-03-12T00:27:19.696Z,87.99
2019-03-12T00:28:19.693Z,87.96
2019-03-12T00:29:19.688Z,87.99
2019-03-12T00:30:19.675Z,87.68
2019-03-12T00:31:19.672Z,87.48
2019-03-12T00:32:19.648Z,87.33
2019-03-12T00:33:19.659Z,87.99
2019-03-12T00:34:19.650Z,87.96
2019-03-12T00:35:19.624Z,87.68
2019-03-12T00:36:19.639Z,87.96
2019-03-12T00:37:19.616Z,87.85
2019-03-12T00:38:19.579Z,87.85
2019-03-12T00:39:19.584Z,87.65
2019-03-12T00:40:19.562Z,87.85
2019-03-12T00:41:20.257Z,87.85
2019-03-12T00:42:19.539Z,87.79
2019-03-12T00:43:19.535Z,87.23
2019-03-12T00:44:19.540Z,87.99
2019-03-12T00:45:19.504Z,88.27
2019-03-12T00:46:19.495Z,88.17
2019-03-12T00:47:19.490Z,87.48
2019-03-12T00:48:19.494Z,87.58
2019-03-12T00:49:19.488Z,88.20
2019-03-12T00:50:19.452Z,87.48
2019-03-12T00:51:19.437Z,88.27
2019-03-12T00:52:19.491Z,88.73
2019-03-12T00:53:19.418Z,88.31
2019-03-12T00:54:19.418Z,87.79
2019-03-12T00:55:19.420Z,88.20
2019-03-12T00:56:19.392Z,89.52
2019-03-12T00:57:19.378Z,89.04
2019-03-12T00:58:19.393Z,89.25
2019-03-12T00:59:19.375Z,89.04
2019-03-12T01:00:19.342Z,88.83
2019-03-12T01:01:19.332Z,89.56
2019-03-12T01:02:19.330Z,89.66
2019-03-12T01:03:19.313Z,89.56
2019-03-12T01:04:19.307Z,89.76
2019-03-12T01:05:19.391Z,90.19
2019-03-12T01:06:19.274Z,89.98
2019-03-12T01:07:19.264Z,89.98
2019-03-12T01:08:19.255Z,89.98
2019-03-12T01:09:19.262Z,90.19
2019-03-12T01:10:19.233Z,89.76
2019-03-12T01:11:19.242Z,90.91
2019-03-12T01:12:19.221Z,91.12
2019-03-12T01:13:19.204Z,91.12
2019-03-12T01:14:19.207Z,91.12
2019-03-12T01:15:19.185Z,91.02
2019-03-12T01:16:19.172Z,91.33
2019-03-12T01:17:19.226Z,91.12
2019-03-12T01:18:19.146Z,90.70
2019-03-12T01:19:19.144Z,91.22
2019-03-12T01:20:19.213Z,91.53
2019-03-12T01:21:19.120Z,91.53
2019-03-12T01:22:19.111Z,91.53
2019-03-12T01:23:19.109Z,91.60
2019-03-12T01:24:19.118Z,91.64
2019-03-12T01:25:19.071Z,91.39
2019-03-12T01:26:19.062Z,91.60
2019-03-12T01:27:19.160Z,91.71
2019-03-12T01:28:19.038Z,91.71
2019-03-12T01:29:19.035Z,91.60
2019-03-12T01:30:19.032Z,91.28
2019-03-12T01:31:19.010Z,91.50
2019-03-12T01:32:18.992Z,91.39
2019-03-12T01:33:18.983Z,91.28
2019-03-12T01:34:19.007Z,91.18
2019-03-12T01:35:18.960Z,91.08
2019-03-12T01:36:18.954Z,91.71
2019-03-12T01:37:18.943Z,91.60
2019-03-12T01:38:18.947Z,91.18
2019-03-12T01:39:18.927Z,91.18
2019-03-12T01:40:18.945Z,91.60
2019-03-12T01:41:18.901Z,91.46
2019-03-12T01:42:18.939Z,91.28
2019-03-12T01:43:18.877Z,91.18
2019-03-12T01:44:18.873Z,90.97
2019-03-12T01:45:18.855Z,90.87
2019-03-12T01:46:18.845Z,91.04
2019-03-12T01:47:18.858Z,90.87
2019-03-12T01:48:18.829Z,90.87
2019-03-12T01:49:18.913Z,90.62
2019-03-12T01:50:18.800Z,90.72
2019-03-12T01:51:18.799Z,90.62
2019-03-12T01:52:18.784Z,90.62
2019-03-12T01:53:18.775Z,89.79
2019-03-12T01:54:18.756Z,89.73
2019-03-12T01:55:18.754Z,90.14
2019-03-12T01:56:18.735Z,89.79
2019-03-12T01:57:18.733Z,89.48
2019-03-12T01:58:18.714Z,89.89
2019-03-12T01:59:18.706Z,89.79
2019-03-12T02:00:18.695Z,89.27
2019-03-12T02:01:18.682Z,88.64
2019-03-12T02:02:18.668Z,87.71
2019-03-12T02:03:18.662Z,88.33
2019-03-12T02:04:18.650Z,87.81
2019-03-12T02:05:18.660Z,88.23
2019-03-12T02:06:18.701Z,88.23
2019-03-12T02:07:18.658Z,87.81
2019-03-12T02:08:18.685Z,88.23
2019-03-12T02:09:18.610Z,88.23
2019-03-12T02:10:18.595Z,87.71
2019-03-12T02:11:18.610Z,88.12
2019-03-12T02:12:18.562Z,88.12
2019-03-12T02:13:18.560Z,87.60
2019-03-12T02:14:18.541Z,87.08
2019-03-12T02:15:18.552Z,88.12
2019-03-12T02:16:18.517Z,86.88
2019-03-12T02:17:18.510Z,87.08
2019-03-12T02:18:18.557Z,86.94
2019-03-12T02:19:18.497Z,87.08
2019-03-12T02:20:18.487Z,86.98
2019-03-12T02:21:18.492Z,87.25
2019-03-12T02:22:18.477Z,86.67
2019-03-12T02:23:18.450Z,86.57
2019-03-12T02:24:18.449Z,86.67
2019-03-12T02:25:18.428Z,86.88
2019-03-12T02:26:18.411Z,86.98
2019-03-12T02:27:18.401Z,87.66
2019-03-12T02:28:18.387Z,86.83
2019-03-12T02:29:18.381Z,86.63
2019-03-12T02:30:18.381Z,86.63
2019-03-12T02:31:18.387Z,86.63
2019-03-12T02:32:18.344Z,86.83
2019-03-12T02:33:18.344Z,86.15
2019-03-12T02:34:18.324Z,86.00
2019-03-12T02:35:18.316Z,86.35
2019-03-12T02:36:18.317Z,86.04
2019-03-12T02:37:18.297Z,86.04
2019-03-12T02:38:18.292Z,85.90
2019-03-12T02:39:18.271Z,86.32
2019-03-12T02:40:18.268Z,86.21
2019-03-12T02:41:18.249Z,85.80
2019-03-12T02:42:18.245Z,85.17
2019-03-12T02:43:18.232Z,85.42
2019-03-12T02:44:18.215Z,86.11
2019-03-12T02:45:18.324Z,86.73
2019-03-12T02:46:18.211Z,86.63
2019-03-12T02:47:18.187Z,85.52
2019-03-12T02:48:18.170Z,85.52
2019-03-12T02:49:18.182Z,85.63
2019-03-12T02:50:18.163Z,84.69
2019-03-12T02:51:18.141Z,84.59
2019-03-12T02:52:18.216Z,84.86
2019-03-12T02:53:18.121Z,85.00
2019-03-12T02:54:18.120Z,85.21
2019-03-12T02:55:18.136Z,84.86
2019-03-12T02:56:18.115Z,85.21
2019-03-12T02:57:18.075Z,85.00
2019-03-12T02:58:18.066Z,85.31
2019-03-12T02:59:18.090Z,84.59
2019-03-12T03:00:18.050Z,84.80
2019-03-12T03:01:18.033Z,84.86
2019-03-12T03:02:18.024Z,84.44
2019-03-12T03:03:18.029Z,84.34
2019-03-12T03:04:18.013Z,84.80
2019-03-12T03:05:18.001Z,84.17
2019-03-12T03:06:17.985Z,84.59
2019-03-12T03:07:17.995Z,84.86
2019-03-12T03:08:17.962Z,84.48
2019-03-12T03:09:17.950Z,84.80
2019-03-12T03:10:17.944Z,84.27
2019-03-12T03:11:17.931Z,84.17
2019-03-12T03:12:17.963Z,84.27
2019-03-12T03:13:17.914Z,84.38
2019-03-12T03:14:18.007Z,85.00
2019-03-12T03:15:17.882Z,84.59
2019-03-12T03:16:17.882Z,84.69
2019-03-12T03:17:17.863Z,85.00
2019-03-12T03:18:17.850Z,84.80
2019-03-12T03:19:17.839Z,85.73
2019-03-12T03:20:17.848Z,86.04
2019-03-12T03:21:17.822Z,85.63
2019-03-12T03:22:17.812Z,85.31
2019-03-12T03:23:17.800Z,85.11
2019-03-12T03:24:17.791Z,85.11
2019-03-12T03:25:17.769Z,84.80
2019-03-12T03:26:17.772Z,85.00
2019-03-12T03:27:17.755Z,85.42
2019-03-12T03:28:17.752Z,86.04
2019-03-12T03:29:17.733Z,85.83
2019-03-12T03:30:17.725Z,85.42
2019-03-12T03:31:17.746Z,85.38
2019-03-12T03:32:17.699Z,85.42
2019-03-12T03:33:17.737Z,85.83
2019-03-12T03:34:17.734Z,85.52
2019-03-12T03:35:17.710Z,85.21
2019-03-12T03:36:17.671Z,85.42
2019-03-12T03:37:17.658Z,84.69
2019-03-12T03:38:17.689Z,85.21
2019-03-12T03:39:17.641Z,84.80
2019-03-12T03:40:17.608Z,84.80
2019-03-12T03:41:17.622Z,84.48
2019-03-12T03:42:17.596Z,84.27
2019-03-12T03:43:17.604Z,85.21
2019-03-12T03:44:17.574Z,85.52
2019-03-12T03:45:17.582Z,85.21
2019-03-12T03:46:17.559Z,84.86
2019-03-12T03:47:19.955Z,85.52
2019-03-12T03:48:17.521Z,86.21
2019-03-12T03:49:17.516Z,85.59
2019-03-12T03:50:17.607Z,85.49
2019-03-12T03:51:17.502Z,84.86
2019-03-12T03:52:17.486Z,85.06
2019-03-12T03:53:17.479Z,85.28
2019-03-12T03:54:17.461Z,84.96
2019-03-12T03:55:17.447Z,84.80
2019-03-12T03:56:17.446Z,84.44
2019-03-12T03:57:17.523Z,84.03
2019-03-12T03:58:17.416Z,84.75
2019-03-12T03:59:17.403Z,84.13
2019-03-12T04:00:17.428Z,84.55
2019-03-12T04:01:17.401Z,84.80
2019-03-12T04:02:17.371Z,84.44
2019-03-12T04:03:17.369Z,84.55
2019-03-12T04:04:17.406Z,84.44
2019-03-12T04:05:17.340Z,84.55
2019-03-12T04:06:17.360Z,84.55
2019-03-12T04:07:17.328Z,84.65
2019-03-12T04:08:17.304Z,84.65
2019-03-12T04:09:17.305Z,84.75
2019-03-12T04:10:17.357Z,84.75
2019-03-12T04:11:17.359Z,84.13
2019-03-12T04:12:17.261Z,85.17
2019-03-12T04:13:17.254Z,84.65
2019-03-12T04:14:17.244Z,85.17
2019-03-12T04:15:17.235Z,84.65
2019-03-12T04:16:17.282Z,85.17
2019-03-12T04:17:17.216Z,85.28
2019-03-12T04:18:17.274Z,85.49
2019-03-12T04:19:17.239Z,84.13
2019-03-12T04:20:17.188Z,84.34
2019-03-12T04:21:17.227Z,84.23
2019-03-12T04:22:17.158Z,84.13
2019-03-12T04:23:17.147Z,83.40
2019-03-12T04:24:17.140Z,83.30
2019-03-12T04:25:17.132Z,84.44
2019-03-12T04:26:17.114Z,83.82
2019-03-12T04:27:17.105Z,84.34
2019-03-12T04:28:17.107Z,83.82
2019-03-12T04:29:17.088Z,84.86
2019-03-12T04:30:17.087Z,84.55
2019-03-12T04:31:17.090Z,84.55
2019-03-12T04:32:17.051Z,84.65
2019-03-12T04:33:17.051Z,84.75
2019-03-12T04:34:17.031Z,84.23
2019-03-12T04:35:17.025Z,83.40
2019-03-12T04:36:17.010Z,83.51
2019-03-12T04:37:17.000Z,84.23
2019-03-12T04:38:17.003Z,83.34
2019-03-12T04:39:16.972Z,83.61
2019-03-12T04:40:16.973Z,84.23
2019-03-12T04:41:16.957Z,83.13
2019-03-12T04:42:16.956Z,83.13
2019-03-12T04:43:16.937Z,84.17
2019-03-12T04:44:16.948Z,84.27
2019-03-12T04:45:16.931Z,84.27
2019-03-12T04:46:16.911Z,84.59
2019-03-12T04:47:16.918Z,84.48
2019-03-12T04:48:16.875Z,84.59
2019-03-12T04:49:16.861Z,84.38
2019-03-12T04:50:16.873Z,84.59
2019-03-12T04:51:16.848Z,83.65
2019-03-12T04:52:16.838Z,84.42
2019-03-12T04:53:16.845Z,84.80
2019-03-12T04:54:16.847Z,84.59
2019-03-12T04:55:16.858Z,84.59
2019-03-12T04:56:16.791Z,84.69
2019-03-12T04:57:16.796Z,84.63
2019-03-12T04:58:16.778Z,84.59
2019-03-12T04:59:16.751Z,84.06
2019-03-12T05:00:16.759Z,84.90
2019-03-12T05:01:16.824Z,84.17
2019-03-12T05:02:16.740Z,84.90
2019-03-12T05:03:16.726Z,84.59
2019-03-12T05:04:16.715Z,84.63
2019-03-12T05:05:16.690Z,84.38
2019-03-12T05:06:19.591Z,84.90
2019-03-12T05:07:16.672Z,84.69
2019-03-12T05:08:16.659Z,84.31
2019-03-12T05:09:16.646Z,84.80
2019-03-12T05:10:16.642Z,84.80
2019-03-12T05:11:16.638Z,84.63
2019-03-12T05:12:16.645Z,83.90
2019-03-12T05:13:16.612Z,84.63
2019-03-12T05:14:16.599Z,84.21
2019-03-12T05:15:16.591Z,84.83
2019-03-12T05:16:17.265Z,84.69
2019-03-12T05:17:16.561Z,84.59
2019-03-12T05:18:16.565Z,84.80
2019-03-12T05:19:16.542Z,84.00
2019-03-12T05:20:16.526Z,84.80
2019-03-12T05:21:16.539Z,83.86
2019-03-12T05:22:16.502Z,84.59
2019-03-12T05:23:16.696Z,84.48
2019-03-12T05:24:16.484Z,84.83
2019-03-12T05:25:16.489Z,84.69
2019-03-12T05:26:16.467Z,84.27
2019-03-12T05:27:16.475Z,84.90
2019-03-12T05:28:16.443Z,85.21
2019-03-12T05:29:16.430Z,84.38
2019-03-12T05:30:16.445Z,84.38
2019-03-12T05:31:16.408Z,84.69
2019-03-12T05:32:16.397Z,84.48
2019-03-12T05:33:16.415Z,84.27
2019-03-12T05:34:16.376Z,84.17
2019-03-12T05:35:16.371Z,84.69
2019-03-12T05:36:16.365Z,84.27
2019-03-12T05:37:16.437Z,84.63
2019-03-12T05:38:16.337Z,84.48
2019-03-12T05:39:16.325Z,84.80
2019-03-12T05:40:16.321Z,84.90
2019-03-12T05:41:16.300Z,84.69
2019-03-12T05:42:16.302Z,84.90
2019-03-12T05:43:16.281Z,84.59
2019-03-12T05:44:16.402Z,84.90
2019-03-12T05:45:16.284Z,84.59
2019-03-12T05:46:16.268Z,83.96
2019-03-12T05:47:16.246Z,84.90
2019-03-12T05:48:16.261Z,84.59
2019-03-12T05:49:16.230Z,84.38
2019-03-12T05:50:16.220Z,85.00
2019-03-12T05:51:16.199Z,84.80
2019-03-12T05:52:16.262Z,84.69
2019-03-12T05:53:16.191Z,84.27
2019-03-12T05:54:16.176Z,84.06
2019-03-12T05:55:16.169Z,83.44
2019-03-12T05:56:16.141Z,83.23
2019-03-12T05:57:16.130Z,82.92
2019-03-12T05:58:16.130Z,82.20
2019-03-12T05:59:16.110Z,82.30
2019-03-12T06:00:16.102Z,82.40
2019-03-12T06:01:16.091Z,82.92
2019-03-12T06:02:16.072Z,82.40
2019-03-12T06:03:16.083Z,82.20
2019-03-12T06:04:16.073Z,82.61
2019-03-12T06:05:16.042Z,82.20
2019-03-12T06:06:16.034Z,82.57
2019-03-12T06:07:16.027Z,82.82
2019-03-12T06:08:16.156Z,83.34
2019-03-12T06:09:15.996Z,83.34
2019-03-12T06:10:15.994Z,83.23
2019-03-12T06:11:15.982Z,83.51
2019-03-12T06:12:15.986Z,84.03
2019-03-12T06:13:15.975Z,82.09
2019-03-12T06:14:15.948Z,81.98
2019-03-12T06:15:16.183Z,82.82
2019-03-12T06:16:15.928Z,83.20
2019-03-12T06:17:15.910Z,83.75
2019-03-12T06:18:15.914Z,84.13
2019-03-12T06:19:15.891Z,83.40
2019-03-12T06:20:15.884Z,82.92
2019-03-12T06:21:15.924Z,82.36
2019-03-12T06:22:15.864Z,82.51
2019-03-12T06:23:15.919Z,82.57
2019-03-12T06:24:15.841Z,82.26
2019-03-12T06:25:15.849Z,81.95
2019-03-12T06:26:15.831Z,82.05
2019-03-12T06:27:18.132Z,82.36
2019-03-12T06:28:15.855Z,81.63
2019-03-12T06:29:16.767Z,81.32
2019-03-12T06:30:15.911Z,81.01
2019-03-12T06:31:15.853Z,81.01
2019-03-12T06:32:15.780Z,81.32
2019-03-12T06:33:15.777Z,81.43
2019-03-12T06:34:15.733Z,81.77
2019-03-12T06:35:15.728Z,81.74
2019-03-12T06:36:15.760Z,82.26
2019-03-12T06:37:15.699Z,81.95
2019-03-12T06:38:15.711Z,81.74
2019-03-12T06:39:15.690Z,81.74
2019-03-12T06:40:15.667Z,80.60
2019-03-12T06:41:15.654Z,80.49
2019-03-12T06:42:15.642Z,80.91
2019-03-12T06:43:15.758Z,81.63
2019-03-12T06:44:15.695Z,81.32
2019-03-12T06:45:15.609Z,81.43
2019-03-12T06:46:15.598Z,82.68
2019-03-12T06:47:15.590Z,81.39
2019-03-12T06:48:15.572Z,81.08
2019-03-12T06:49:15.581Z,81.08
2019-03-12T06:50:15.603Z,81.70
2019-03-12T06:51:15.572Z,80.46
2019-03-12T06:52:15.538Z,80.87
2019-03-12T06:53:15.538Z,80.46
2019-03-12T06:54:15.524Z,80.66
2019-03-12T06:55:15.517Z,80.66
2019-03-12T06:56:15.520Z,80.56
2019-03-12T06:57:15.593Z,81.49
2019-03-12T06:58:15.465Z,82.43
2019-03-12T06:59:15.480Z,81.56
2019-03-12T07:00:15.445Z,80.83
2019-03-12T07:01:15.447Z,79.83
2019-03-12T07:02:15.450Z,79.52
2019-03-12T07:03:15.418Z,79.94
2019-03-12T07:04:15.419Z,78.96
2019-03-12T07:05:15.392Z,78.34
2019-03-12T07:06:15.381Z,78.65
2019-03-12T07:07:17.113Z,79.27
2019-03-12T07:08:15.368Z,78.44
2019-03-12T07:09:15.367Z,77.92
2019-03-12T07:10:15.347Z,78.96
2019-03-12T07:11:15.334Z,77.82
2019-03-12T07:12:15.339Z,77.51
2019-03-12T07:13:15.315Z,77.92
2019-03-12T07:14:15.297Z,78.65
2019-03-12T07:15:15.282Z,77.40
2019-03-12T07:16:15.279Z,77.40
2019-03-12T07:17:15.265Z,77.72
2019-03-12T07:18:15.259Z,77.92
2019-03-12T07:19:15.271Z,76.02
2019-03-12T07:20:15.255Z,76.54
2019-03-12T07:21:15.230Z,75.74
2019-03-12T07:22:15.241Z,76.26
2019-03-12T07:23:15.195Z,75.54
2019-03-12T07:24:15.199Z,76.57
2019-03-12T07:25:15.178Z,76.06
2019-03-12T07:26:15.171Z,76.47
2019-03-12T07:27:15.168Z,76.68
2019-03-12T07:28:15.149Z,76.12
2019-03-12T07:29:15.175Z,75.85
2019-03-12T07:30:15.133Z,75.43
2019-03-12T07:31:15.260Z,75.50
2019-03-12T07:32:15.101Z,74.70
2019-03-12T07:33:15.089Z,75.19
2019-03-12T07:34:18.212Z,76.47
2019-03-12T07:35:15.077Z,77.16
2019-03-12T07:36:15.067Z,76.33
2019-03-12T07:37:15.050Z,76.06
2019-03-12T07:38:15.044Z,76.23
2019-03-12T07:39:15.038Z,76.95
2019-03-12T07:40:15.016Z,76.64
2019-03-12T07:41:25.246Z,76.54
2019-03-12T07:42:16.008Z,77.16
2019-03-12T07:43:14.989Z,77.89
2019-03-12T07:44:14.989Z,76.33
2019-03-12T07:45:14.982Z,75.92
2019-03-12T07:46:14.952Z,75.98
2019-03-12T07:47:14.942Z,76.50
2019-03-12T07:48:14.971Z,76.33
2019-03-12T07:49:14.916Z,76.19
2019-03-12T07:50:14.916Z,74.53
2019-03-12T07:51:14.899Z,74.74
2019-03-12T07:52:14.896Z,74.84
2019-03-12T07:53:14.898Z,74.53
2019-03-12T07:54:14.865Z,74.22
2019-03-12T07:55:14.860Z,75.46
2019-03-12T07:56:14.918Z,74.22
2019-03-12T07:57:14.837Z,74.43
2019-03-12T07:58:14.824Z,73.88
2019-03-12T07:59:14.848Z,73.80
2019-03-12T08:00:14.816Z,73.70
2019-03-12T08:01:14.797Z,72.74
2019-03-12T08:02:14.782Z,72.74
2019-03-12T08:03:14.799Z,73.25
2019-03-12T08:04:14.755Z,73.36
2019-03-12T08:05:14.770Z,74.08
2019-03-12T08:06:14.735Z,73.77
2019-03-12T08:07:14.722Z,72.84
2019-03-12T08:08:14.714Z,72.74
2019-03-12T08:09:14.708Z,73.57
2019-03-12T08:10:14.882Z,73.46
2019-03-12T08:11:14.695Z,73.15
2019-03-12T08:12:14.676Z,72.42
2019-03-12T08:13:14.669Z,72.18
2019-03-12T08:14:14.654Z,71.87
2019-03-12T08:15:23.135Z,72.08
2019-03-12T08:16:15.636Z,71.35
2019-03-12T08:17:14.620Z,70.83
2019-03-12T08:18:14.614Z,69.59
2019-03-12T08:19:14.595Z,71.14
2019-03-12T08:20:14.601Z,70.52
2019-03-12T08:21:22.193Z,69.69
2019-03-12T08:22:15.575Z,69.83
2019-03-12T08:23:14.555Z,70.97
2019-03-12T08:24:14.561Z,71.56
2019-03-12T08:25:14.573Z,70.62
2019-03-12T08:26:14.522Z,69.90
2019-03-12T08:27:14.518Z,69.07
2019-03-12T08:28:14.514Z,69.48
2019-03-12T08:29:14.489Z,69.48
2019-03-12T08:30:14.483Z,71.04
2019-03-12T08:31:14.476Z,71.35
2019-03-12T08:32:14.532Z,71.32
2019-03-12T08:33:14.446Z,71.32
2019-03-12T08:34:14.442Z,71.42
2019-03-12T08:35:14.428Z,70.15
2019-03-12T08:36:14.424Z,69.32
2019-03-12T08:37:14.402Z,68.90
2019-03-12T08:38:14.406Z,69.29
2019-03-12T08:39:14.523Z,68.15
2019-03-12T08:40:14.454Z,69.08
2019-03-12T08:41:14.398Z,66.25
2019-03-12T08:42:14.425Z,66.05
2019-03-12T08:43:14.340Z,65.32
2019-03-12T08:44:14.338Z,65.11
2019-03-12T08:45:15.314Z,64.59
2019-03-12T08:46:14.311Z,65.19
2019-03-12T08:47:14.301Z,65.85
2019-03-12T08:48:14.285Z,62.82
2019-03-12T08:49:14.277Z,61.87
2019-03-12T08:50:14.263Z,61.55
2019-03-12T08:51:14.263Z,61.40
2019-03-12T08:52:14.253Z,60.82
2019-03-12T08:53:14.232Z,59.84
2019-03-12T08:54:14.217Z,58.24
2019-03-12T08:55:14.208Z,58.83
2019-03-12T08:56:14.210Z,55.49
2019-03-12T08:57:14.186Z,54.74
2019-03-12T08:58:14.174Z,55.74
2019-03-12T08:59:14.164Z,54.59
2019-03-12T09:00:14.158Z,53.64
2019-03-12T09:01:14.289Z,51.90
2019-03-12T09:02:14.139Z,52.59
2019-03-12T09:03:14.124Z,51.75
2019-03-12T09:04:14.114Z,49.26
2019-03-12T09:05:14.103Z,49.26
2019-03-12T09:06:14.101Z,48.81
2019-03-12T09:07:14.087Z,47.89
2019-03-12T09:08:14.073Z,47.42
2019-03-12T09:09:14.060Z,47.11
2019-03-12T09:10:14.052Z,49.88
2019-03-12T09:11:14.046Z,49.14
2019-03-12T09:12:14.024Z,48.73
2019-03-12T09:13:14.010Z,49.47
2019-03-12T09:14:14.011Z,49.67
2019-03-12T09:15:13.994Z,51.82
2019-03-12T09:16:14.011Z,49.06
2019-03-12T09:17:13.973Z,47.26
2019-03-12T09:18:13.962Z,47.97
2019-03-12T09:19:13.946Z,49.18
2019-03-12T09:20:13.942Z,48.57
2019-03-12T09:21:13.941Z,49.39
2019-03-12T09:22:13.916Z,50.01
2019-03-12T09:23:13.943Z,49.16
2019-03-12T09:24:13.926Z,49.24
2019-03-12T09:25:13.883Z,46.30
2019-03-12T09:26:13.906Z,46.60
2019-03-12T09:27:13.860Z,47.03
2019-03-12T09:28:13.863Z,47.64
2019-03-12T09:29:13.845Z,45.93
2019-03-12T09:30:13.849Z,45.51
2019-03-12T09:31:13.816Z,47.00
2019-03-12T09:32:13.811Z,45.99
2019-03-12T09:33:13.796Z,48.07
2019-03-12T09:34:13.785Z,50.24
2019-03-12T09:35:13.788Z,49.63
2019-03-12T09:36:13.770Z,50.24
2019-03-12T09:37:13.772Z,49.01
2019-03-12T09:38:13.768Z,49.84
2019-03-12T09:39:13.730Z,49.52
2019-03-12T09:40:13.720Z,49.55
2019-03-12T09:41:13.713Z,48.44
2019-03-12T09:42:13.751Z,48.98
2019-03-12T09:43:13.684Z,50.75
2019-03-12T09:44:13.679Z,52.22
2019-03-12T09:45:13.872Z,53.14
2019-03-12T09:46:13.658Z,54.20
2019-03-12T09:47:13.649Z,54.41
2019-03-12T09:48:13.630Z,54.28
2019-03-12T09:49:13.625Z,56.31
2019-03-12T09:50:13.614Z,53.81
2019-03-12T09:51:13.600Z,51.45
2019-03-12T09:52:13.618Z,54.15
2019-03-12T09:53:13.584Z,52.50
2019-03-12T09:54:13.568Z,54.28
2019-03-12T09:55:13.571Z,53.97
2019-03-12T09:56:13.549Z,52.11
2019-03-12T09:57:13.534Z,55.00
2019-03-12T09:58:13.527Z,55.41
2019-03-12T09:59:13.518Z,56.16
2019-03-12T10:00:16.611Z,55.82
2019-03-12T10:01:13.494Z,56.23
2019-03-12T10:02:13.483Z,55.82
2019-03-12T10:03:13.475Z,54.38
2019-03-12T10:04:13.496Z,52.83
2019-03-12T10:05:13.446Z,53.86
2019-03-12T10:06:13.439Z,52.32
2019-03-12T10:07:13.470Z,52.45
2019-03-12T10:08:13.419Z,52.55
2019-03-12T10:09:13.409Z,52.98
2019-03-12T10:10:13.407Z,52.37
2019-03-12T10:11:13.390Z,53.94
2019-03-12T10:12:13.387Z,54.35
2019-03-12T10:13:13.361Z,54.04
2019-03-12T10:14:13.350Z,54.25
2019-03-12T10:15:13.340Z,54.56
2019-03-12T10:16:13.333Z,53.83
2019-03-12T10:17:13.323Z,54.25
2019-03-12T10:18:13.321Z,54.46
2019-03-12T10:19:13.310Z,54.35
2019-03-12T10:20:13.281Z,54.48
2019-03-12T10:21:13.277Z,55.00
2019-03-12T10:22:13.297Z,56.54
2019-03-12T10:23:13.257Z,57.37
2019-03-12T10:24:13.239Z,55.72
2019-03-12T10:25:13.228Z,55.62
2019-03-12T10:26:13.216Z,56.85
2019-03-12T10:27:13.217Z,57.47
2019-03-12T10:28:13.197Z,56.23
2019-03-12T10:29:13.341Z,55.41
2019-03-12T10:30:13.175Z,56.65
2019-03-12T10:31:13.162Z,57.26
2019-03-12T10:32:13.160Z,55.41
2019-03-12T10:33:13.145Z,53.16
2019-03-12T10:34:13.135Z,53.89
2019-03-12T10:35:13.116Z,56.16
2019-03-12T10:36:13.224Z,55.43
2019-03-12T10:37:16.294Z,55.13
2019-03-12T10:38:13.083Z,56.26
2019-03-12T10:39:13.071Z,55.23
2019-03-12T10:40:13.058Z,55.33
2019-03-12T10:41:13.060Z,54.61
2019-03-12T10:42:13.053Z,56.26
2019-03-12T10:43:13.034Z,55.00
2019-03-12T10:44:13.020Z,55.00
2019-03-12T10:45:13.005Z,55.72
2019-03-12T10:46:12.995Z,53.86
2019-03-12T10:47:12.992Z,55.13
2019-03-12T10:48:12.980Z,54.58
2019-03-12T10:49:12.984Z,53.76
2019-03-12T10:50:13.003Z,54.90
2019-03-12T10:51:13.268Z,53.76
2019-03-12T10:52:12.971Z,54.06
2019-03-12T10:53:12.939Z,53.83
2019-03-12T10:54:12.925Z,53.96
2019-03-12T10:55:14.021Z,53.83
2019-03-12T10:56:12.902Z,54.22
2019-03-12T10:57:12.875Z,53.86
2019-03-12T10:58:12.878Z,53.74
2019-03-12T10:59:12.851Z,54.00
2019-03-12T11:00:12.835Z,52.04
2019-03-12T11:01:12.830Z,49.44
2019-03-12T11:02:12.817Z,49.73
2019-03-12T11:03:12.805Z,48.17
2019-03-12T11:04:12.800Z,47.96
2019-03-12T11:05:12.791Z,47.55
2019-03-12T11:06:12.783Z,47.94
2019-03-12T11:07:16.644Z,47.09
2019-03-12T11:08:12.750Z,45.95
2019-03-12T11:09:12.758Z,46.46
2019-03-12T11:10:12.739Z,45.39
2019-03-12T11:11:12.723Z,45.29
2019-03-12T11:12:12.704Z,43.04
2019-03-12T11:13:14.654Z,43.96
2019-03-12T11:14:12.687Z,45.17
2019-03-12T11:15:12.699Z,45.27
2019-03-12T11:16:12.687Z,45.35
2019-03-12T11:17:12.653Z,44.86
2019-03-12T11:18:12.681Z,45.15
2019-03-12T11:19:12.641Z,42.61
2019-03-12T11:20:12.620Z,41.99
2019-03-12T11:21:12.656Z,42.22
2019-03-12T11:22:12.603Z,42.34
2019-03-12T11:23:12.599Z,42.36
2019-03-12T11:24:12.575Z,43.59
2019-03-12T11:25:12.604Z,42.79
2019-03-12T11:26:12.550Z,42.89
2019-03-12T11:27:12.539Z,44.43
2019-03-12T11:28:12.531Z,42.99
2019-03-12T11:29:12.529Z,43.42
2019-03-12T11:30:12.527Z,44.56
2019-03-12T11:31:12.557Z,45.58
2019-03-12T11:32:12.487Z,44.65
2019-03-12T11:33:12.486Z,44.56
2019-03-12T11:34:12.488Z,44.74
2019-03-12T11:35:12.569Z,46.17
2019-03-12T11:36:12.493Z,46.07
2019-03-12T11:37:12.530Z,43.40
2019-03-12T11:38:12.427Z,47.63
2019-03-12T11:39:12.432Z,46.97
2019-03-12T11:40:12.401Z,44.41
2019-03-12T11:41:12.405Z,44.80
2019-03-12T11:42:12.374Z,44.47
2019-03-12T11:43:12.380Z,42.91
2019-03-12T11:44:12.360Z,44.35
2019-03-12T11:45:16.224Z,44.73
2019-03-12T11:46:13.337Z,42.65
2019-03-12T11:47:12.349Z,42.03
2019-03-12T11:48:12.309Z,39.56
2019-03-12T11:49:12.332Z,39.05
2019-03-12T11:50:12.317Z,41.08
2019-03-12T11:51:12.285Z,41.06
2019-03-12T11:52:12.270Z,41.44
2019-03-12T11:53:12.266Z,40.00
2019-03-12T11:54:12.261Z,41.42
2019-03-12T11:55:12.334Z,41.41
2019-03-12T11:56:12.241Z,40.06
2019-03-12T11:57:12.228Z,39.17
2019-03-12T11:58:12.202Z,38.35
2019-03-12T11:59:12.202Z,37.14
2019-03-12T12:00:12.189Z,36.12
2019-03-12T12:01:12.180Z,36.73
2019-03-12T12:02:12.164Z,37.94
2019-03-12T12:03:12.152Z,35.80
2019-03-12T12:04:12.148Z,36.43
2019-03-12T12:05:12.151Z,37.85
2019-03-12T12:06:12.120Z,37.85
2019-03-12T12:07:12.117Z,40.12
2019-03-12T12:08:12.096Z,38.79
2019-03-12T12:09:12.135Z,39.00
2019-03-12T12:10:12.141Z,38.09
2019-03-12T12:11:12.064Z,38.09
2019-03-12T12:12:12.051Z,39.03
2019-03-12T12:13:12.050Z,38.62
2019-03-12T12:14:12.045Z,39.07
2019-03-12T12:15:12.028Z,42.34
2019-03-12T12:16:12.014Z,43.06
2019-03-12T12:17:12.002Z,40.30
2019-03-12T12:18:11.983Z,38.68
2019-03-12T12:19:12.010Z,41.61
2019-03-12T12:20:11.977Z,39.14
2019-03-12T12:21:11.965Z,39.94
2019-03-12T12:22:11.963Z,38.09
2019-03-12T12:23:11.940Z,38.28
2019-03-12T12:24:12.725Z,37.77
2019-03-12T12:25:11.984Z,38.06
2019-03-12T12:26:11.899Z,37.67
2019-03-12T12:27:11.892Z,36.75
2019-03-12T12:28:11.882Z,37.77
2019-03-12T12:29:11.867Z,38.06
2019-03-12T12:30:11.873Z,35.78
2019-03-12T12:31:11.855Z,35.78
2019-03-12T12:32:11.834Z,34.95
2019-03-12T12:33:11.823Z,36.36
2019-03-12T12:34:11.818Z,34.73
2019-03-12T12:35:11.811Z,36.16
2019-03-12T12:36:11.820Z,33.71
2019-03-12T12:37:13.867Z,33.73
2019-03-12T12:38:11.781Z,33.42
2019-03-12T12:39:11.816Z,33.44
2019-03-12T12:40:11.751Z,34.76
2019-03-12T12:41:11.738Z,34.44
2019-03-12T12:42:11.733Z,35.36
2019-03-12T12:43:11.713Z,34.95
2019-03-12T12:44:11.707Z,34.93
2019-03-12T12:45:11.695Z,34.66
2019-03-12T12:46:11.761Z,34.97
2019-03-12T12:47:11.671Z,34.97
2019-03-12T12:48:11.659Z,36.92
2019-03-12T12:49:11.661Z,37.31
2019-03-12T12:50:11.644Z,34.76
2019-03-12T12:51:11.629Z,33.96
2019-03-12T12:52:11.609Z,34.58